This is the latest recevied weather packets stored in our database for station/object PP5ABU-13. If no packets are shown the sender has not sent any weather packets the latest 10 day(s).
| Time | Temp. | Humidity | Pressure | Rain* | Wind** | Luminosity | Snow |
|---|---|---|---|---|---|---|---|
| 1777731304 | 21.67° C | 94% | 1009.6 hPa | 0 mm | - | - | - |
| 1777730405 | 22.22° C | 92% | 1010.3 hPa | 0 mm | - | - | - |
| 1777729504 | 21.67° C | 100% | 1010.5 hPa | 0 mm | - | - | - |
| 1777728604 | 21.67° C | 99% | 1010.4 hPa | 0 mm | - | - | - |
| 1777727704 | 21.11° C | 99% | 1010.9 hPa | 0 mm | - | - | - |
| 1777726804 | 21.11° C | 99% | 1010.8 hPa | 0 mm | - | - | - |
| 1777725905 | 21.11° C | 99% | 1011 hPa | 0 mm | - | - | - |
| 1777725004 | 21.11° C | 99% | 1011.4 hPa | 0.25 mm | - | - | - |
| 1777724105 | 20.56° C | 99% | 1011.1 hPa | 0.25 mm | - | - | - |
| 1777723204 | 20.56° C | 99% | 1010.4 hPa | 0.25 mm | - | - | - |
| 1777722304 | 20.56° C | 99% | 1011 hPa | 0.25 mm | - | - | - |
| 1777721405 | 20.56° C | 99% | 1012 hPa | 0 mm | - | - | - |
| 1777720504 | 20° C | 99% | 1012.4 hPa | 0 mm | - | - | - |
| 1777719605 | 20° C | 99% | 1012.8 hPa | 0 mm | - | - | - |
| 1777718704 | 20° C | 99% | 1013.4 hPa | 0.25 mm | - | - | - |
| 1777717805 | 20° C | 99% | 1013.3 hPa | 0.25 mm | - | - | - |
| 1777716904 | 20° C | 99% | 1013.9 hPa | 0.51 mm | - | - | - |
| 1777716004 | 19.44° C | 99% | 1013.9 hPa | 0.51 mm | - | - | - |
| 1777715104 | 19.44° C | 99% | 1013.2 hPa | 3.56 mm | - | - | - |
| 1777714204 | 19.44° C | 99% | 1012.9 hPa | 6.6 mm | - | - | - |
| 1777713305 | 19.44° C | 99% | 1013.7 hPa | 6.35 mm | - | - | - |
| 1777712405 | 19.44° C | 99% | 1013.6 hPa | 6.35 mm | - | - | - |
| 1777711505 | 20° C | 92% | 1014.7 hPa | 3.05 mm | - | - | - |
| 1777710604 | 21.67° C | 83% | 1012.5 hPa | 0 mm | - | - | - |
| 1777709704 | 21.67° C | 84% | 1012.2 hPa | 0 mm | - | - | - |
* Rain latest hour (hover to see other rain measurements)
** Current wind speed in m/s (hover to see current wind gust speed)